sensor_id;sensor_type;location;lat;lon;timestamp;P1;durP1;ratioP1;P2;durP2;ratioP2
18176;SDS011;9213;50.858;3.964;2022-11-20T00:01:28;96.70;;;34.80;;
18176;SDS011;9213;50.858;3.964;2022-11-20T00:03:56;106.07;;;35.97;;
18176;SDS011;9213;50.858;3.964;2022-11-20T00:06:24;99.47;;;36.03;;
18176;SDS011;9213;50.858;3.964;2022-11-20T00:08:53;103.13;;;35.87;;
18176;SDS011;9213;50.858;3.964;2022-11-20T00:11:21;105.60;;;36.53;;
18176;SDS011;9213;50.858;3.964;2022-11-20T00:13:50;110.00;;;35.60;;
18176;SDS011;9213;50.858;3.964;2022-11-20T00:16:20;110.27;;;37.80;;
18176;SDS011;9213;50.858;3.964;2022-11-20T00:18:48;96.33;;;35.13;;
18176;SDS011;9213;50.858;3.964;2022-11-20T00:21:16;104.30;;;36.90;;
18176;SDS011;9213;50.858;3.964;2022-11-20T00:23:44;89.13;;;36.47;;
18176;SDS011;9213;50.858;3.964;2022-11-20T00:26:12;95.70;;;35.10;;
18176;SDS011;9213;50.858;3.964;2022-11-20T00:28:40;100.07;;;36.90;;
18176;SDS011;9213;50.858;3.964;2022-11-20T00:31:09;92.50;;;34.23;;
18176;SDS011;9213;50.858;3.964;2022-11-20T00:33:39;105.93;;;37.10;;
18176;SDS011;9213;50.858;3.964;2022-11-20T00:36:06;101.23;;;36.33;;
18176;SDS011;9213;50.858;3.964;2022-11-20T00:38:35;107.80;;;37.97;;
18176;SDS011;9213;50.858;3.964;2022-11-20T00:41:03;98.07;;;35.93;;
18176;SDS011;9213;50.858;3.964;2022-11-20T00:43:31;98.93;;;36.60;;
18176;SDS011;9213;50.858;3.964;2022-11-20T00:45:59;114.73;;;38.53;;
18176;SDS011;9213;50.858;3.964;2022-11-20T00:48:26;100.00;;;35.80;;
18176;SDS011;9213;50.858;3.964;2022-11-20T00:50:55;90.13;;;34.57;;
18176;SDS011;9213;50.858;3.964;2022-11-20T00:53:22;96.93;;;34.90;;
18176;SDS011;9213;50.858;3.964;2022-11-20T00:55:53;87.80;;;33.90;;
18176;SDS011;9213;50.858;3.964;2022-11-20T00:58:21;88.30;;;35.23;;
18176;SDS011;9213;50.858;3.964;2022-11-20T01:00:48;76.87;;;33.07;;
18176;SDS011;9213;50.858;3.964;2022-11-20T01:03:15;84.53;;;33.57;;
18176;SDS011;9213;50.858;3.964;2022-11-20T01:05:42;76.00;;;33.07;;
18176;SDS011;9213;50.858;3.964;2022-11-20T01:08:11;71.50;;;30.67;;
18176;SDS011;9213;50.858;3.964;2022-11-20T01:10:38;72.77;;;33.30;;
18176;SDS011;9213;50.858;3.964;2022-11-20T01:13:05;84.20;;;32.10;;
18176;SDS011;9213;50.858;3.964;2022-11-20T01:15:49;78.77;;;31.60;;
18176;SDS011;9213;50.858;3.964;2022-11-20T01:18:16;78.87;;;32.70;;
18176;SDS011;9213;50.858;3.964;2022-11-20T01:20:43;91.30;;;34.63;;
18176;SDS011;9213;50.858;3.964;2022-11-20T01:23:12;99.93;;;33.23;;
18176;SDS011;9213;50.858;3.964;2022-11-20T01:25:38;86.40;;;34.53;;
18176;SDS011;9213;50.858;3.964;2022-11-20T01:28:05;91.50;;;35.03;;
18176;SDS011;9213;50.858;3.964;2022-11-20T01:30:32;93.33;;;33.97;;
18176;SDS011;9213;50.858;3.964;2022-11-20T01:32:59;97.10;;;34.87;;
18176;SDS011;9213;50.858;3.964;2022-11-20T01:35:26;103.33;;;34.07;;
18176;SDS011;9213;50.858;3.964;2022-11-20T01:37:53;95.37;;;32.60;;
18176;SDS011;9213;50.858;3.964;2022-11-20T01:40:22;95.37;;;35.37;;
18176;SDS011;9213;50.858;3.964;2022-11-20T01:42:51;109.10;;;36.50;;
18176;SDS011;9213;50.858;3.964;2022-11-20T01:48:41;100.60;;;35.23;;
18176;SDS011;9213;50.858;3.964;2022-11-20T01:51:15;94.87;;;34.00;;
18176;SDS011;9213;50.858;3.964;2022-11-20T01:53:47;99.27;;;35.70;;
18176;SDS011;9213;50.858;3.964;2022-11-20T01:56:16;96.47;;;33.20;;
18176;SDS011;9213;50.858;3.964;2022-11-20T01:58:44;94.10;;;35.27;;
18176;SDS011;9213;50.858;3.964;2022-11-20T02:01:15;85.07;;;34.13;;
18176;SDS011;9213;50.858;3.964;2022-11-20T02:03:42;88.17;;;34.07;;
18176;SDS011;9213;50.858;3.964;2022-11-20T02:06:11;98.10;;;33.90;;
18176;SDS011;9213;50.858;3.964;2022-11-20T02:08:42;95.67;;;32.97;;
18176;SDS011;9213;50.858;3.964;2022-11-20T02:11:09;87.57;;;32.73;;
18176;SDS011;9213;50.858;3.964;2022-11-20T02:13:39;92.80;;;34.13;;
18176;SDS011;9213;50.858;3.964;2022-11-20T02:16:09;93.13;;;33.67;;
18176;SDS011;9213;50.858;3.964;2022-11-20T02:18:39;86.33;;;33.80;;
18176;SDS011;9213;50.858;3.964;2022-11-20T02:21:08;83.53;;;32.33;;
18176;SDS011;9213;50.858;3.964;2022-11-20T02:23:51;80.67;;;33.20;;
18176;SDS011;9213;50.858;3.964;2022-11-20T02:26:30;87.63;;;31.77;;
18176;SDS011;9213;50.858;3.964;2022-11-20T02:28:58;91.87;;;33.63;;
18176;SDS011;9213;50.858;3.964;2022-11-20T02:31:26;80.27;;;30.17;;
18176;SDS011;9213;50.858;3.964;2022-11-20T02:33:54;76.47;;;29.63;;
18176;SDS011;9213;50.858;3.964;2022-11-20T02:36:22;79.57;;;29.33;;
18176;SDS011;9213;50.858;3.964;2022-11-20T02:38:53;86.83;;;31.47;;
18176;SDS011;9213;50.858;3.964;2022-11-20T02:41:20;88.47;;;32.83;;
18176;SDS011;9213;50.858;3.964;2022-11-20T02:43:47;88.47;;;31.97;;
18176;SDS011;9213;50.858;3.964;2022-11-20T02:46:14;98.20;;;33.47;;
18176;SDS011;9213;50.858;3.964;2022-11-20T02:48:41;82.47;;;32.20;;
18176;SDS011;9213;50.858;3.964;2022-11-20T02:51:08;88.50;;;33.70;;
18176;SDS011;9213;50.858;3.964;2022-11-20T02:53:35;91.77;;;33.00;;
18176;SDS011;9213;50.858;3.964;2022-11-20T02:56:03;88.40;;;32.60;;
18176;SDS011;9213;50.858;3.964;2022-11-20T02:58:31;92.53;;;32.60;;
18176;SDS011;9213;50.858;3.964;2022-11-20T03:00:58;85.77;;;32.73;;
18176;SDS011;9213;50.858;3.964;2022-11-20T03:03:24;90.50;;;32.53;;
18176;SDS011;9213;50.858;3.964;2022-11-20T03:05:51;96.00;;;34.00;;
18176;SDS011;9213;50.858;3.964;2022-11-20T03:08:18;87.73;;;32.27;;
18176;SDS011;9213;50.858;3.964;2022-11-20T03:10:45;92.10;;;33.20;;
18176;SDS011;9213;50.858;3.964;2022-11-20T03:13:13;90.10;;;32.93;;
18176;SDS011;9213;50.858;3.964;2022-11-20T03:15:40;96.43;;;33.57;;
18176;SDS011;9213;50.858;3.964;2022-11-20T03:18:07;97.00;;;33.77;;
18176;SDS011;9213;50.858;3.964;2022-11-20T03:20:34;101.87;;;32.57;;
18176;SDS011;9213;50.858;3.964;2022-11-20T03:23:01;95.17;;;32.37;;
18176;SDS011;9213;50.858;3.964;2022-11-20T03:25:29;89.77;;;31.93;;
18176;SDS011;9213;50.858;3.964;2022-11-20T03:27:55;97.37;;;33.70;;
18176;SDS011;9213;50.858;3.964;2022-11-20T03:30:24;84.23;;;31.83;;
18176;SDS011;9213;50.858;3.964;2022-11-20T03:32:52;90.07;;;33.43;;
18176;SDS011;9213;50.858;3.964;2022-11-20T03:35:19;93.73;;;32.43;;
18176;SDS011;9213;50.858;3.964;2022-11-20T03:37:47;90.03;;;33.33;;
18176;SDS011;9213;50.858;3.964;2022-11-20T03:40:14;93.70;;;32.17;;
18176;SDS011;9213;50.858;3.964;2022-11-20T03:42:41;93.60;;;31.37;;
18176;SDS011;9213;50.858;3.964;2022-11-20T03:45:11;85.83;;;31.80;;
18176;SDS011;9213;50.858;3.964;2022-11-20T03:47:39;88.87;;;32.60;;
18176;SDS011;9213;50.858;3.964;2022-11-20T03:50:07;81.33;;;30.83;;
18176;SDS011;9213;50.858;3.964;2022-11-20T03:52:34;88.40;;;31.97;;
18176;SDS011;9213;50.858;3.964;2022-11-20T03:55:01;92.73;;;32.87;;
18176;SDS011;9213;50.858;3.964;2022-11-20T03:57:29;80.17;;;31.13;;
18176;SDS011;9213;50.858;3.964;2022-11-20T03:59:56;97.90;;;32.13;;
18176;SDS011;9213;50.858;3.964;2022-11-20T04:02:23;92.53;;;33.63;;
18176;SDS011;9213;50.858;3.964;2022-11-20T04:04:51;98.47;;;32.07;;
18176;SDS011;9213;50.858;3.964;2022-11-20T04:07:18;91.90;;;32.53;;
18176;SDS011;9213;50.858;3.964;2022-11-20T04:09:45;89.70;;;32.17;;
18176;SDS011;9213;50.858;3.964;2022-11-20T04:12:12;93.40;;;32.50;;
18176;SDS011;9213;50.858;3.964;2022-11-20T04:14:39;98.33;;;32.33;;
18176;SDS011;9213;50.858;3.964;2022-11-20T04:17:05;93.17;;;32.63;;
18176;SDS011;9213;50.858;3.964;2022-11-20T04:19:32;96.13;;;31.53;;
18176;SDS011;9213;50.858;3.964;2022-11-20T04:22:01;103.10;;;33.20;;
18176;SDS011;9213;50.858;3.964;2022-11-20T04:24:27;99.27;;;33.60;;
18176;SDS011;9213;50.858;3.964;2022-11-20T04:26:54;103.17;;;33.50;;
18176;SDS011;9213;50.858;3.964;2022-11-20T04:29:21;97.70;;;33.23;;
18176;SDS011;9213;50.858;3.964;2022-11-20T04:31:48;112.70;;;33.77;;
18176;SDS011;9213;50.858;3.964;2022-11-20T04:34:15;119.20;;;35.47;;
18176;SDS011;9213;50.858;3.964;2022-11-20T04:36:42;113.33;;;34.50;;
18176;SDS011;9213;50.858;3.964;2022-11-20T04:39:12;129.37;;;33.63;;
18176;SDS011;9213;50.858;3.964;2022-11-20T04:41:41;139.80;;;35.80;;
18176;SDS011;9213;50.858;3.964;2022-11-20T04:44:09;124.73;;;35.57;;
18176;SDS011;9213;50.858;3.964;2022-11-20T04:46:37;127.77;;;35.77;;
18176;SDS011;9213;50.858;3.964;2022-11-20T04:49:04;143.63;;;36.43;;
18176;SDS011;9213;50.858;3.964;2022-11-20T04:51:32;146.63;;;37.37;;
18176;SDS011;9213;50.858;3.964;2022-11-20T04:54:00;129.93;;;36.10;;
18176;SDS011;9213;50.858;3.964;2022-11-20T04:56:28;141.47;;;38.53;;
18176;SDS011;9213;50.858;3.964;2022-11-20T04:58:55;132.27;;;36.00;;
18176;SDS011;9213;50.858;3.964;2022-11-20T05:01:25;129.73;;;35.50;;
18176;SDS011;9213;50.858;3.964;2022-11-20T05:03:52;149.60;;;37.03;;
18176;SDS011;9213;50.858;3.964;2022-11-20T05:06:21;134.23;;;34.87;;
18176;SDS011;9213;50.858;3.964;2022-11-20T05:08:48;135.17;;;37.23;;
18176;SDS011;9213;50.858;3.964;2022-11-20T05:11:16;133.60;;;34.87;;
18176;SDS011;9213;50.858;3.964;2022-11-20T05:13:46;129.23;;;35.00;;
18176;SDS011;9213;50.858;3.964;2022-11-20T05:16:14;140.80;;;36.23;;
18176;SDS011;9213;50.858;3.964;2022-11-20T05:18:42;136.23;;;34.87;;
18176;SDS011;9213;50.858;3.964;2022-11-20T05:21:09;133.70;;;33.70;;
18176;SDS011;9213;50.858;3.964;2022-11-20T05:23:37;147.37;;;36.03;;
18176;SDS011;9213;50.858;3.964;2022-11-20T05:26:05;126.33;;;35.97;;
18176;SDS011;9213;50.858;3.964;2022-11-20T05:28:33;131.23;;;35.33;;
18176;SDS011;9213;50.858;3.964;2022-11-20T05:31:05;119.73;;;34.67;;
18176;SDS011;9213;50.858;3.964;2022-11-20T05:33:33;139.37;;;34.97;;
18176;SDS011;9213;50.858;3.964;2022-11-20T05:36:00;129.60;;;34.57;;
18176;SDS011;9213;50.858;3.964;2022-11-20T05:38:27;125.73;;;34.23;;
18176;SDS011;9213;50.858;3.964;2022-11-20T05:40:54;131.03;;;33.47;;
18176;SDS011;9213;50.858;3.964;2022-11-20T05:43:28;118.33;;;32.70;;
18176;SDS011;9213;50.858;3.964;2022-11-20T05:45:58;108.27;;;33.27;;
18176;SDS011;9213;50.858;3.964;2022-11-20T05:48:26;126.83;;;33.27;;
18176;SDS011;9213;50.858;3.964;2022-11-20T05:50:53;111.23;;;33.43;;
18176;SDS011;9213;50.858;3.964;2022-11-20T05:53:20;117.83;;;33.57;;
18176;SDS011;9213;50.858;3.964;2022-11-20T05:55:55;110.67;;;32.67;;
18176;SDS011;9213;50.858;3.964;2022-11-20T05:58:22;120.10;;;33.13;;
18176;SDS011;9213;50.858;3.964;2022-11-20T06:00:49;120.00;;;33.93;;
18176;SDS011;9213;50.858;3.964;2022-11-20T06:03:16;112.97;;;33.63;;
18176;SDS011;9213;50.858;3.964;2022-11-20T06:05:45;124.30;;;34.20;;
18176;SDS011;9213;50.858;3.964;2022-11-20T06:08:12;123.93;;;32.87;;
18176;SDS011;9213;50.858;3.964;2022-11-20T06:10:39;118.43;;;32.57;;
18176;SDS011;9213;50.858;3.964;2022-11-20T06:13:06;98.27;;;32.33;;
18176;SDS011;9213;50.858;3.964;2022-11-20T06:15:32;123.53;;;33.87;;
18176;SDS011;9213;50.858;3.964;2022-11-20T06:17:59;113.17;;;33.97;;
18176;SDS011;9213;50.858;3.964;2022-11-20T06:20:26;108.33;;;32.97;;
18176;SDS011;9213;50.858;3.964;2022-11-20T06:22:55;114.83;;;33.37;;
18176;SDS011;9213;50.858;3.964;2022-11-20T06:25:21;109.77;;;32.90;;
18176;SDS011;9213;50.858;3.964;2022-11-20T06:27:48;111.47;;;33.63;;
18176;SDS011;9213;50.858;3.964;2022-11-20T06:30:15;106.90;;;32.00;;
18176;SDS011;9213;50.858;3.964;2022-11-20T06:32:42;116.67;;;32.73;;
18176;SDS011;9213;50.858;3.964;2022-11-20T06:35:09;110.87;;;31.57;;
18176;SDS011;9213;50.858;3.964;2022-11-20T06:37:36;104.83;;;32.87;;
18176;SDS011;9213;50.858;3.964;2022-11-20T06:40:05;98.53;;;30.20;;
18176;SDS011;9213;50.858;3.964;2022-11-20T06:42:33;107.27;;;32.63;;
18176;SDS011;9213;50.858;3.964;2022-11-20T06:45:00;103.37;;;31.37;;
18176;SDS011;9213;50.858;3.964;2022-11-20T06:47:27;102.50;;;30.97;;
18176;SDS011;9213;50.858;3.964;2022-11-20T06:49:54;105.47;;;31.43;;
18176;SDS011;9213;50.858;3.964;2022-11-20T06:52:21;98.63;;;32.23;;
18176;SDS011;9213;50.858;3.964;2022-11-20T06:54:48;102.03;;;30.97;;
18176;SDS011;9213;50.858;3.964;2022-11-20T06:57:16;103.27;;;30.40;;
18176;SDS011;9213;50.858;3.964;2022-11-20T06:59:43;91.67;;;29.20;;
18176;SDS011;9213;50.858;3.964;2022-11-20T07:02:10;90.87;;;30.07;;
18176;SDS011;9213;50.858;3.964;2022-11-20T07:04:37;98.13;;;30.00;;
18176;SDS011;9213;50.858;3.964;2022-11-20T07:07:05;88.63;;;30.23;;
18176;SDS011;9213;50.858;3.964;2022-11-20T07:09:32;96.47;;;31.37;;
18176;SDS011;9213;50.858;3.964;2022-11-20T07:11:59;103.60;;;30.90;;
18176;SDS011;9213;50.858;3.964;2022-11-20T07:14:27;89.63;;;29.33;;
18176;SDS011;9213;50.858;3.964;2022-11-20T07:16:54;90.10;;;29.63;;
18176;SDS011;9213;50.858;3.964;2022-11-20T07:19:21;103.33;;;29.37;;
18176;SDS011;9213;50.858;3.964;2022-11-20T07:21:50;86.80;;;26.67;;
18176;SDS011;9213;50.858;3.964;2022-11-20T07:24:18;92.10;;;28.20;;
18176;SDS011;9213;50.858;3.964;2022-11-20T07:26:45;92.03;;;27.67;;
18176;SDS011;9213;50.858;3.964;2022-11-20T07:29:14;99.67;;;28.20;;
18176;SDS011;9213;50.858;3.964;2022-11-20T07:31:43;104.07;;;29.57;;
18176;SDS011;9213;50.858;3.964;2022-11-20T07:34:10;102.23;;;29.33;;
18176;SDS011;9213;50.858;3.964;2022-11-20T07:36:37;105.37;;;27.90;;
18176;SDS011;9213;50.858;3.964;2022-11-20T07:39:04;121.33;;;28.23;;
18176;SDS011;9213;50.858;3.964;2022-11-20T07:41:31;104.33;;;28.10;;
18176;SDS011;9213;50.858;3.964;2022-11-20T07:43:58;108.00;;;27.53;;
18176;SDS011;9213;50.858;3.964;2022-11-20T07:46:24;100.30;;;27.40;;
18176;SDS011;9213;50.858;3.964;2022-11-20T07:48:53;115.40;;;28.40;;
18176;SDS011;9213;50.858;3.964;2022-11-20T07:51:20;140.07;;;30.27;;
18176;SDS011;9213;50.858;3.964;2022-11-20T07:53:50;114.07;;;29.07;;
18176;SDS011;9213;50.858;3.964;2022-11-20T07:56:17;115.27;;;30.87;;
18176;SDS011;9213;50.858;3.964;2022-11-20T07:58:44;165.17;;;29.37;;
18176;SDS011;9213;50.858;3.964;2022-11-20T08:01:11;123.57;;;29.87;;
18176;SDS011;9213;50.858;3.964;2022-11-20T08:03:38;128.80;;;29.30;;
18176;SDS011;9213;50.858;3.964;2022-11-20T08:06:07;126.00;;;30.00;;
18176;SDS011;9213;50.858;3.964;2022-11-20T08:08:34;151.57;;;30.93;;
18176;SDS011;9213;50.858;3.964;2022-11-20T08:11:01;124.33;;;30.13;;
18176;SDS011;9213;50.858;3.964;2022-11-20T08:14:00;136.43;;;29.77;;
18176;SDS011;9213;50.858;3.964;2022-11-20T08:16:39;129.07;;;28.47;;
18176;SDS011;9213;50.858;3.964;2022-11-20T08:19:07;146.63;;;29.13;;
18176;SDS011;9213;50.858;3.964;2022-11-20T08:21:35;140.67;;;30.87;;
18176;SDS011;9213;50.858;3.964;2022-11-20T08:24:02;141.67;;;29.80;;
18176;SDS011;9213;50.858;3.964;2022-11-20T08:26:30;129.50;;;29.03;;
18176;SDS011;9213;50.858;3.964;2022-11-20T08:28:57;136.07;;;28.93;;
18176;SDS011;9213;50.858;3.964;2022-11-20T08:31:24;128.33;;;28.90;;
18176;SDS011;9213;50.858;3.964;2022-11-20T08:33:52;144.43;;;30.30;;
18176;SDS011;9213;50.858;3.964;2022-11-20T08:36:20;137.93;;;30.43;;
18176;SDS011;9213;50.858;3.964;2022-11-20T08:38:49;94.70;;;29.10;;
18176;SDS011;9213;50.858;3.964;2022-11-20T08:41:17;139.70;;;29.50;;
18176;SDS011;9213;50.858;3.964;2022-11-20T08:43:51;135.43;;;30.10;;
18176;SDS011;9213;50.858;3.964;2022-11-20T08:46:19;150.77;;;28.20;;
18176;SDS011;9213;50.858;3.964;2022-11-20T08:48:46;141.40;;;29.90;;
18176;SDS011;9213;50.858;3.964;2022-11-20T08:51:13;116.10;;;28.87;;
18176;SDS011;9213;50.858;3.964;2022-11-20T08:53:41;104.23;;;30.27;;
18176;SDS011;9213;50.858;3.964;2022-11-20T08:56:09;116.57;;;28.97;;
18176;SDS011;9213;50.858;3.964;2022-11-20T08:58:36;95.83;;;27.87;;
18176;SDS011;9213;50.858;3.964;2022-11-20T09:01:04;87.90;;;27.10;;
18176;SDS011;9213;50.858;3.964;2022-11-20T09:03:31;92.73;;;27.70;;
18176;SDS011;9213;50.858;3.964;2022-11-20T09:05:58;90.00;;;26.60;;
18176;SDS011;9213;50.858;3.964;2022-11-20T09:08:26;78.63;;;26.87;;
18176;SDS011;9213;50.858;3.964;2022-11-20T09:10:53;92.10;;;27.07;;
18176;SDS011;9213;50.858;3.964;2022-11-20T09:13:22;89.73;;;26.03;;
18176;SDS011;9213;50.858;3.964;2022-11-20T09:15:52;76.93;;;24.77;;
18176;SDS011;9213;50.858;3.964;2022-11-20T09:18:20;78.23;;;24.00;;
18176;SDS011;9213;50.858;3.964;2022-11-20T09:20:47;81.63;;;26.27;;
18176;SDS011;9213;50.858;3.964;2022-11-20T09:23:14;67.43;;;24.73;;
18176;SDS011;9213;50.858;3.964;2022-11-20T09:25:41;74.57;;;25.57;;
18176;SDS011;9213;50.858;3.964;2022-11-20T09:28:08;69.77;;;24.47;;
18176;SDS011;9213;50.858;3.964;2022-11-20T09:30:36;63.93;;;23.23;;
18176;SDS011;9213;50.858;3.964;2022-11-20T09:33:04;68.80;;;23.80;;
18176;SDS011;9213;50.858;3.964;2022-11-20T09:35:31;62.33;;;23.27;;
18176;SDS011;9213;50.858;3.964;2022-11-20T09:37:58;63.60;;;23.43;;
18176;SDS011;9213;50.858;3.964;2022-11-20T09:40:30;54.33;;;21.23;;
18176;SDS011;9213;50.858;3.964;2022-11-20T09:42:58;66.77;;;22.70;;
18176;SDS011;9213;50.858;3.964;2022-11-20T09:45:39;54.83;;;21.80;;
18176;SDS011;9213;50.858;3.964;2022-11-20T09:51:29;53.20;;;20.47;;
18176;SDS011;9213;50.858;3.964;2022-11-20T09:54:07;40.77;;;19.20;;
18176;SDS011;9213;50.858;3.964;2022-11-20T09:56:41;43.10;;;19.70;;
18176;SDS011;9213;50.858;3.964;2022-11-20T09:59:14;45.57;;;19.83;;
18176;SDS011;9213;50.858;3.964;2022-11-20T10:01:53;37.70;;;17.57;;
18176;SDS011;9213;50.858;3.964;2022-11-20T10:04:21;41.37;;;17.30;;
18176;SDS011;9213;50.858;3.964;2022-11-20T10:06:50;37.13;;;16.67;;
18176;SDS011;9213;50.858;3.964;2022-11-20T10:09:23;27.47;;;14.33;;
18176;SDS011;9213;50.858;3.964;2022-11-20T10:12:00;27.33;;;13.90;;
18176;SDS011;9213;50.858;3.964;2022-11-20T10:14:43;23.07;;;13.07;;
18176;SDS011;9213;50.858;3.964;2022-11-20T10:17:22;24.20;;;11.73;;
18176;SDS011;9213;50.858;3.964;2022-11-20T10:20:02;19.20;;;10.83;;
18176;SDS011;9213;50.858;3.964;2022-11-20T10:22:43;19.20;;;10.10;;
18176;SDS011;9213;50.858;3.964;2022-11-20T10:25:22;16.43;;;8.97;;
18176;SDS011;9213;50.858;3.964;2022-11-20T10:28:12;14.50;;;8.63;;
18176;SDS011;9213;50.858;3.964;2022-11-20T10:30:50;19.00;;;8.47;;
18176;SDS011;9213;50.858;3.964;2022-11-20T10:33:24;15.47;;;8.00;;
18176;SDS011;9213;50.858;3.964;2022-11-20T10:35:57;17.00;;;7.17;;
18176;SDS011;9213;50.858;3.964;2022-11-20T10:38:35;11.50;;;7.10;;
18176;SDS011;9213;50.858;3.964;2022-11-20T10:41:05;12.90;;;6.57;;
18176;SDS011;9213;50.858;3.964;2022-11-20T10:43:52;9.80;;;6.63;;
18176;SDS011;9213;50.858;3.964;2022-11-20T10:46:24;10.63;;;6.00;;
18176;SDS011;9213;50.858;3.964;2022-11-20T10:48:56;10.93;;;5.93;;
18176;SDS011;9213;50.858;3.964;2022-11-20T10:51:29;9.90;;;6.60;;
18176;SDS011;9213;50.858;3.964;2022-11-20T10:54:06;9.13;;;5.60;;
18176;SDS011;9213;50.858;3.964;2022-11-20T10:56:40;6.93;;;4.87;;
18176;SDS011;9213;50.858;3.964;2022-11-20T10:59:19;10.53;;;5.60;;
18176;SDS011;9213;50.858;3.964;2022-11-20T11:01:58;9.57;;;5.00;;
18176;SDS011;9213;50.858;3.964;2022-11-20T11:04:32;12.20;;;4.93;;
18176;SDS011;9213;50.858;3.964;2022-11-20T11:07:06;7.13;;;4.77;;
18176;SDS011;9213;50.858;3.964;2022-11-20T11:09:38;7.50;;;4.47;;
18176;SDS011;9213;50.858;3.964;2022-11-20T11:12:09;7.73;;;4.77;;
18176;SDS011;9213;50.858;3.964;2022-11-20T11:14:43;4.93;;;4.20;;
18176;SDS011;9213;50.858;3.964;2022-11-20T11:17:22;9.63;;;5.30;;
18176;SDS011;9213;50.858;3.964;2022-11-20T11:19:59;7.83;;;4.77;;
18176;SDS011;9213;50.858;3.964;2022-11-20T11:22:27;10.03;;;4.50;;
18176;SDS011;9213;50.858;3.964;2022-11-20T11:24:56;9.27;;;4.20;;
18176;SDS011;9213;50.858;3.964;2022-11-20T11:27:23;5.60;;;4.10;;
18176;SDS011;9213;50.858;3.964;2022-11-20T11:29:50;7.93;;;4.00;;
18176;SDS011;9213;50.858;3.964;2022-11-20T11:32:28;8.03;;;4.23;;
18176;SDS011;9213;50.858;3.964;2022-11-20T11:35:00;7.03;;;4.23;;
18176;SDS011;9213;50.858;3.964;2022-11-20T11:37:29;6.83;;;3.80;;
18176;SDS011;9213;50.858;3.964;2022-11-20T11:40:00;8.67;;;3.60;;
18176;SDS011;9213;50.858;3.964;2022-11-20T11:42:27;7.80;;;3.70;;
18176;SDS011;9213;50.858;3.964;2022-11-20T11:44:55;5.43;;;4.30;;
18176;SDS011;9213;50.858;3.964;2022-11-20T11:47:30;6.30;;;3.13;;
18176;SDS011;9213;50.858;3.964;2022-11-20T11:50:07;6.20;;;3.97;;
18176;SDS011;9213;50.858;3.964;2022-11-20T11:52:46;6.90;;;4.03;;
18176;SDS011;9213;50.858;3.964;2022-11-20T11:55:25;7.17;;;3.87;;
18176;SDS011;9213;50.858;3.964;2022-11-20T11:57:57;10.00;;;4.13;;
18176;SDS011;9213;50.858;3.964;2022-11-20T12:00:33;6.23;;;4.13;;
18176;SDS011;9213;50.858;3.964;2022-11-20T12:03:05;7.67;;;4.10;;
18176;SDS011;9213;50.858;3.964;2022-11-20T12:05:42;7.03;;;4.23;;
18176;SDS011;9213;50.858;3.964;2022-11-20T12:08:13;9.37;;;4.50;;
18176;SDS011;9213;50.858;3.964;2022-11-20T12:10:45;10.87;;;4.70;;
18176;SDS011;9213;50.858;3.964;2022-11-20T12:13:20;10.97;;;5.10;;
18176;SDS011;9213;50.858;3.964;2022-11-20T12:15:56;8.40;;;4.27;;
18176;SDS011;9213;50.858;3.964;2022-11-20T12:18:24;6.57;;;4.63;;
18176;SDS011;9213;50.858;3.964;2022-11-20T12:20:56;9.20;;;5.03;;
18176;SDS011;9213;50.858;3.964;2022-11-20T12:23:32;7.67;;;4.00;;
18176;SDS011;9213;50.858;3.964;2022-11-20T12:26:08;6.83;;;4.27;;
18176;SDS011;9213;50.858;3.964;2022-11-20T12:28:50;7.37;;;4.50;;
18176;SDS011;9213;50.858;3.964;2022-11-20T12:31:35;7.23;;;4.17;;
18176;SDS011;9213;50.858;3.964;2022-11-20T12:34:15;8.20;;;4.27;;
18176;SDS011;9213;50.858;3.964;2022-11-20T12:37:08;7.80;;;4.60;;
18176;SDS011;9213;50.858;3.964;2022-11-20T12:39:43;7.90;;;4.60;;
18176;SDS011;9213;50.858;3.964;2022-11-20T12:42:20;9.90;;;4.40;;
18176;SDS011;9213;50.858;3.964;2022-11-20T12:45:25;7.67;;;4.40;;
18176;SDS011;9213;50.858;3.964;2022-11-20T12:48:30;6.43;;;4.53;;
18176;SDS011;9213;50.858;3.964;2022-11-20T12:51:08;8.90;;;4.63;;
18176;SDS011;9213;50.858;3.964;2022-11-20T12:53:54;4.63;;;4.00;;
18176;SDS011;9213;50.858;3.964;2022-11-20T12:56:35;7.37;;;4.10;;
18176;SDS011;9213;50.858;3.964;2022-11-20T12:59:16;4.80;;;4.10;;
18176;SDS011;9213;50.858;3.964;2022-11-20T13:01:55;7.73;;;5.00;;
18176;SDS011;9213;50.858;3.964;2022-11-20T13:07:18;8.77;;;4.43;;
18176;SDS011;9213;50.858;3.964;2022-11-20T13:09:49;5.43;;;4.80;;
18176;SDS011;9213;50.858;3.964;2022-11-20T13:12:17;5.87;;;4.27;;
18176;SDS011;9213;50.858;3.964;2022-11-20T13:14:52;7.17;;;4.30;;
18176;SDS011;9213;50.858;3.964;2022-11-20T13:17:27;4.90;;;4.50;;
18176;SDS011;9213;50.858;3.964;2022-11-20T13:20:00;5.60;;;4.40;;
18176;SDS011;9213;50.858;3.964;2022-11-20T13:22:42;5.47;;;3.83;;
18176;SDS011;9213;50.858;3.964;2022-11-20T13:25:21;3.87;;;3.47;;
18176;SDS011;9213;50.858;3.964;2022-11-20T13:27:48;4.67;;;3.63;;
18176;SDS011;9213;50.858;3.964;2022-11-20T13:30:17;5.13;;;3.70;;
18176;SDS011;9213;50.858;3.964;2022-11-20T13:32:49;5.37;;;3.93;;
18176;SDS011;9213;50.858;3.964;2022-11-20T13:35:30;5.37;;;3.67;;
18176;SDS011;9213;50.858;3.964;2022-11-20T13:37:59;3.63;;;3.33;;
18176;SDS011;9213;50.858;3.964;2022-11-20T13:40:29;4.17;;;3.60;;
18176;SDS011;9213;50.858;3.964;2022-11-20T13:43:00;6.27;;;3.83;;
18176;SDS011;9213;50.858;3.964;2022-11-20T13:45:41;3.93;;;3.53;;
18176;SDS011;9213;50.858;3.964;2022-11-20T13:48:18;4.80;;;4.30;;
18176;SDS011;9213;50.858;3.964;2022-11-20T13:50:50;3.40;;;3.13;;
18176;SDS011;9213;50.858;3.964;2022-11-20T13:53:36;3.30;;;3.00;;
18176;SDS011;9213;50.858;3.964;2022-11-20T13:56:18;4.50;;;4.10;;
18176;SDS011;9213;50.858;3.964;2022-11-20T13:58:53;4.93;;;4.13;;
18176;SDS011;9213;50.858;3.964;2022-11-20T14:01:29;4.57;;;4.17;;
18176;SDS011;9213;50.858;3.964;2022-11-20T14:03:57;4.50;;;4.10;;
18176;SDS011;9213;50.858;3.964;2022-11-20T14:06:25;6.50;;;3.90;;
18176;SDS011;9213;50.858;3.964;2022-11-20T14:08:53;6.30;;;5.70;;
18176;SDS011;9213;50.858;3.964;2022-11-20T14:11:23;6.20;;;5.13;;
18176;SDS011;9213;50.858;3.964;2022-11-20T14:13:56;5.23;;;4.73;;
18176;SDS011;9213;50.858;3.964;2022-11-20T14:16:25;5.77;;;5.27;;
18176;SDS011;9213;50.858;3.964;2022-11-20T14:18:55;5.87;;;5.20;;
18176;SDS011;9213;50.858;3.964;2022-11-20T14:21:23;6.67;;;5.57;;
18176;SDS011;9213;50.858;3.964;2022-11-20T14:23:52;5.77;;;5.27;;
18176;SDS011;9213;50.858;3.964;2022-11-20T14:26:20;6.60;;;6.03;;
18176;SDS011;9213;50.858;3.964;2022-11-20T14:28:49;8.30;;;6.20;;
18176;SDS011;9213;50.858;3.964;2022-11-20T14:31:20;6.30;;;5.70;;
18176;SDS011;9213;50.858;3.964;2022-11-20T14:33:50;7.23;;;5.77;;
18176;SDS011;9213;50.858;3.964;2022-11-20T14:36:18;10.03;;;7.73;;
18176;SDS011;9213;50.858;3.964;2022-11-20T14:38:47;8.17;;;6.27;;
18176;SDS011;9213;50.858;3.964;2022-11-20T14:41:16;7.60;;;6.90;;
18176;SDS011;9213;50.858;3.964;2022-11-20T14:43:50;7.80;;;7.00;;
18176;SDS011;9213;50.858;3.964;2022-11-20T14:46:21;8.40;;;7.10;;
18176;SDS011;9213;50.858;3.964;2022-11-20T14:48:50;6.87;;;6.23;;
18176;SDS011;9213;50.858;3.964;2022-11-20T14:51:23;8.67;;;7.37;;
18176;SDS011;9213;50.858;3.964;2022-11-20T14:53:54;7.03;;;6.33;;
18176;SDS011;9213;50.858;3.964;2022-11-20T14:56:21;9.67;;;6.43;;
18176;SDS011;9213;50.858;3.964;2022-11-20T14:58:56;9.57;;;8.63;;
18176;SDS011;9213;50.858;3.964;2022-11-20T15:01:27;8.50;;;6.20;;
18176;SDS011;9213;50.858;3.964;2022-11-20T15:03:59;7.00;;;5.60;;
18176;SDS011;9213;50.858;3.964;2022-11-20T15:06:27;10.47;;;6.00;;